ADDS METAR Data INFO
IDs: Format: Raw Decoded Include TAF

Data at: 0904 UTC 20 Oct 2017

KLXL 200852Z AUTO 13006KT 10SM CLR 11/05 A2983 RMK AO2
KLXL 200831Z AUTO 13005KT 10SM CLR 10/05 A2983 RMK AO2
KLXL 200811Z AUTO 13004KT 10SM CLR 11/05 A2984 RMK AO2
KLXL 200752Z AUTO 13005KT 10SM CLR 10/04 A2985 RMK AO2
KLXL 200731Z AUTO 12005KT 10SM CLR 11/03 A2985 RMK AO2
KLXL 200712Z AUTO 12005KT 10SM CLR 11/03 A2985 RMK AO2
KLXL 200651Z AUTO 13005KT 10SM CLR 11/03 A2986 RMK AO2
KLXL 200632Z AUTO 12005KT 10SM CLR 11/03 A2986 RMK AO2
KLXL 200611Z AUTO 13004KT 10SM CLR 11/02 A2986 RMK AO2
KLXL 200551Z AUTO 12003KT 10SM CLR 11/02 A2987 RMK AO2
KLXL 200532Z AUTO 12003KT 10SM CLR 11/01 A2987 RMK AO2
KLXL 200511Z AUTO 13003KT 10SM CLR 11/01 A2987 RMK AO2
KLXL 200451Z AUTO 12004KT 10SM CLR 11/01 A2987 RMK AO2
KLXL 200431Z AUTO 12004KT 10SM CLR 11/00 A2988 RMK AO2
KLXL 200411Z AUTO 12003KT 10SM CLR 11/00 A2988 RMK AO2
KLXL 200352Z AUTO 12004KT 10SM CLR 12/00 A2988 RMK AO2
KLXL 200331Z AUTO 11003KT 10SM CLR 12/00 A2988 RMK AO2
KLXL 200311Z AUTO 12003KT 10SM CLR 13/00 A2989 RMK AO2
KLXL 200252Z AUTO 13004KT 10SM CLR 13/00 A2988 RMK AO2
KLXL 200231Z AUTO 13005KT 10SM CLR 13/00 A2988 RMK AO2
KLXL 200211Z AUTO 13005KT 10SM CLR 13/00 A2989 RMK AO2
KLXL 200152Z AUTO 13005KT 10SM CLR 13/M01 A2989 RMK AO2
KLXL 200131Z AUTO 14004KT 10SM CLR 14/M01 A2989 RMK AO2
KLXL 200111Z AUTO 14005KT 10SM CLR 15/M01 A2989 RMK AO2
KLXL 200052Z AUTO 13005KT 10SM CLR 15/M01 A2988 RMK AO2
KLXL 200031Z AUTO 14006KT 10SM CLR 16/M01 A2988 RMK AO2
KLXL 200011Z AUTO 15006KT 10SM CLR 16/M01 A2989 RMK AO2
KLXL 192352Z AUTO 14005KT 6
KLXL 192331Z AUTO 15005KT 10SM CLR 17/M01 A2989 RMK AO2
KLXL 192311Z AUTO 16007KT 10SM CLR 18/M02 A2989 RMK AO2
KLXL 192252Z AUTO 16006KT 10SM CLR 19/M02 A2989 RMK AO2
KLXL 192231Z AUTO 16006KT 10SM CLR 20/M03 A2989 RMK AO2
KLXL 192211Z AUTO 17008KT 10SM CLR 20/M03 A2990 RMK AO2
KLXL 192151Z AUTO 19009KT 10SM CLR 21/M05 A2990 RMK AO2
KLXL 192131Z AUTO 19012G19KT 10SM CLR 21/M06 A2990 RMK AO2
KLXL 192112Z AUTO 18012G18KT 10SM CLR 21/M06 A2990 RMK AO2
KLXL 192051Z AUTO 18010G18KT 10SM CLR 21/M06 A2991 RMK AO2
KLXL 192031Z AUTO 18013G18KT 10SM CLR 21/M07 A2991 RMK AO2
KLXL 192012Z AUTO 18014G23KT 10SM CLR 21/M07 A2991 RMK AO2
KLXL 191951Z AUTO 19010G17KT 10SM CLR 21/M06 A2992 RMK AO2
KLXL 191931Z AUTO 17011G17KT 10SM CLR 21/M07 A2993 RMK AO2
KLXL 191912Z AUTO 18012G15KT 10SM CLR 21/M07 A2994 RMK AO2
KLXL 191851Z AUTO 16011G16KT 10SM CLR 20/M06 A2994 RMK AO2
KLXL 191831Z AUTO 18011G20KT 10SM CLR 20/M06 A2996 RMK AO2
KLXL 191757Z AUTO 19010G17KT 10SM CLR 18/M07 A2998 RMK AO2
KLXL 191731Z AUTO 19009G14KT 10SM CLR 18/M07 A2999 RMK AO2
KLXL 191711Z AUTO 17012KT 10SM CLR 17/M08 A2999 RMK AO2
KLXL 191651Z AUTO 17010KT 10SM CLR 17/M07 A3000 RMK AO2
KLXL 191631Z AUTO 18005KT 10SM CLR 16/M04 A3000 RMK AO2
KLXL 191612Z AUTO 18005KT 10SM CLR 13/M04 A3001 RMK AO2
KLXL 191551Z AUTO 17006KT 10SM CLR 12/M03 A3001 RMK AO2
KLXL 191531Z AUTO 18005KT 10SM CLR 11/M03 A3001 RMK AO2
KLXL 191512Z AUTO 18005KT 10SM CLR 09/M02 A3002 RMK AO2
KLXL 191451Z AUTO 19004KT 10SM CLR 08/M02 A3002 RMK AO2
KLXL 191431Z AUTO 17003KT 10SM CLR 07/M02 A3002 RMK AO2
KLXL 191412Z AUTO 00000KT 10SM CLR 06/00 A3001 RMK AO2
KLXL 191351Z AUTO 00000KT 10SM CLR 04/M01 A3001 RMK AO2
KLXL 191331Z AUTO 00000KT 10SM CLR 02/M02 A3002 RMK AO2
KLXL 191312Z AUTO 00000KT 10SM CLR 01/M02 A3001 RMK AO2
KLXL 191251Z AUTO 00000KT 10SM CLR 01/M02 A3001 RMK AO2
KLXL 191231Z AUTO 00000KT 10SM CLR 01/M01 A3000 RMK AO2
KLXL 191212Z AUTO 00000KT 6
KLXL 191151Z AUTO 00000KT 10SM CLR 02/M02 A3001 RMK AO2
KLXL 191131Z AUTO 00000KT 10SM CLR 03/M02 A3001 RMK AO2
KLXL 191112Z AUTO 00000KT 10SM CLR 02/M02 A3001 RMK AO2
KLXL 191051Z AUTO 00000KT 10SM CLR 02/M02 A3001 RMK AO2
KLXL 191031Z AUTO 00000KT 10SM CLR 01/M01 A3001 RMK AO2
KLXL 191012Z AUTO 00000KT 10SM CLR 00/M02 A3000 RMK AO2
KLXL 190951Z AUTO 00000KT 10SM CLR 01/M02 A3000 RMK AO2
KLXL 190931Z AUTO 00000KT 10SM CLR 02/M02 A3000 RMK AO2
KLXL 190911Z AUTO 00000KT 10SM CLR 02/M02 A3000 RMK AO2
KLXL 190852Z AUTO 00000KT 10SM CLR 02/M03 A3000 RMK AO2
KLXL 190831Z AUTO 00000KT 10SM CLR 03/M03 A3000 RMK AO2
KLXL 190811Z AUTO 00000KT 10SM CLR 02/M03 A3001 RMK AO2
KLXL 190752Z AUTO 00000KT 6
KLXL 190731Z AUTO 00000KT 10SM CLR 02/M02 A3000 RMK AO2
KLXL 190711Z AUTO 00000KT 10SM CLR 03/M03 A3000 RMK AO2
KLXL 190652Z AUTO 00000KT 10SM CLR 04/M04 A2999 RMK AO2
KLXL 190631Z AUTO 00000KT 10SM CLR 04/M04 A2999 RMK AO2
KLXL 190611Z AUTO 00000KT 10SM CLR 06/M06 A2999 RMK AO2
KLXL 190551Z AUTO 00000KT 10SM CLR 06/M06 A2999 RMK AO2
KLXL 190531Z AUTO 00000KT 10SM CLR 05/M05 A2999 RMK AO2
KLXL 190512Z AUTO 00000KT 10SM CLR 05/M06 A2999 RMK AO2
KLXL 190451Z AUTO 24004KT 10SM CLR 07/M08 A2998 RMK AO2
KLXL 190431Z AUTO 00000KT 10SM CLR 06/M08 A2998 RMK AO2
KLXL 190412Z AUTO 22003KT 10SM CLR 07/M08 A2998 RMK AO2
KLXL 190351Z AUTO 22003KT 10SM CLR 07/M08 A2998 RMK AO2
KLXL 190331Z AUTO 23003KT 10SM CLR 08/M09 A2998 RMK AO2
KLXL 190312Z AUTO 23004KT 10SM CLR 08/M09 A2998 RMK AO2
KLXL 190252Z AUTO 22003KT 10SM CLR 08/M09 A2997 RMK AO2
KLXL 190231Z AUTO 00000KT 10SM CLR 08/M10 A2996 RMK AO2
KLXL 190211Z AUTO 26003KT 10SM CLR 10/M11 A2995 RMK AO2
KLXL 190151Z AUTO 26006KT 10SM CLR 10/M11 A2995 RMK AO2
KLXL 190131Z AUTO 26006KT 10SM CLR 10/M10 A2995 RMK AO2
KLXL 190112Z AUTO 26005KT 10SM CLR 10/M10 A2994 RMK AO2
KLXL 190051Z AUTO 27004KT 10SM CLR 11/M09 A2994 RMK AO2
KLXL 190031Z AUTO 27004KT 10SM CLR 11/M09 A2994 RMK AO2
KLXL 190012Z AUTO 27006KT 10SM CLR 12/M10 A2994 RMK AO2
KLXL 182351Z AUTO 26006KT 10SM CLR 12/M11 A2993 RMK AO2
KLXL 182331Z AUTO 26007KT 10SM CLR 13/M12 A2991 RMK AO2
KLXL 182312Z AUTO 27008KT 10SM CLR 13/M13 A2991 RMK AO2
KLXL 182251Z AUTO 27010G16KT 10SM CLR 14/M13 A2990 RMK AO2
KLXL 182231Z AUTO 28010G19KT 10SM CLR 15/M15 A2989 RMK AO2
KLXL 182212Z AUTO 29015G20KT 10SM CLR 16/M16 A2988 RMK AO2
KLXL 182152Z AUTO 28014G18KT 10SM CLR 16/M16 A2988 RMK AO2
KLXL 182131Z AUTO 28017G20KT 10SM CLR 16/M17 A2987 RMK AO2
KLXL 182111Z AUTO 28013G18KT 10SM CLR 17/M15 A2987 RMK AO2